Hadlock, Washington
Current Conditions -  °F | °C
As of 1:56 AM on Thursday 29 Jan 2015 (Local Time) from KNUW Reporting Station
Haze Haze  
Wind Chill: 43°   Ceiling: 300
Heat Index: 43°   Visibility: 1mi
Dew Point: 41°   Wind: 3mph
Humidity: 93%   Direction: 10°N
Pressure: 30.39"   Gusts: NA
Location:  48.0288°N, 122.77°W
Report Text: KNUW 290956Z 01003KT 1SM BR BKN003 06/05 A3039 RMK AO2 TWR VIS 3 SLP295 T00610050 VISNO E $
Loading
Personal Weather Stations






























Interactive Weather Map New forecast layout! Learn more

10-Day Weather Forecast

Advertisements
Track Severe Weather on mobile